sensor_id;sensor_type;location;lat;lon;timestamp;P1;durP1;ratioP1;P2;durP2;ratioP2
65656;SDS011;57397;50.096;14.404;2022-11-20T00:02:09;18.60;;;10.57;;
65656;SDS011;57397;50.096;14.404;2022-11-20T00:04:35;15.20;;;9.18;;
65656;SDS011;57397;50.096;14.404;2022-11-20T00:07:00;18.65;;;10.38;;
65656;SDS011;57397;50.096;14.404;2022-11-20T00:09:25;15.27;;;9.88;;
65656;SDS011;57397;50.096;14.404;2022-11-20T00:11:51;18.63;;;9.57;;
65656;SDS011;57397;50.096;14.404;2022-11-20T00:14:16;17.02;;;9.45;;
65656;SDS011;57397;50.096;14.404;2022-11-20T00:16:42;16.02;;;9.40;;
65656;SDS011;57397;50.096;14.404;2022-11-20T00:19:07;17.73;;;9.82;;
65656;SDS011;57397;50.096;14.404;2022-11-20T00:21:33;16.70;;;9.65;;
65656;SDS011;57397;50.096;14.404;2022-11-20T00:23:58;16.00;;;9.63;;
65656;SDS011;57397;50.096;14.404;2022-11-20T00:26:25;17.90;;;9.60;;
65656;SDS011;57397;50.096;14.404;2022-11-20T00:28:57;18.60;;;10.50;;
65656;SDS011;57397;50.096;14.404;2022-11-20T00:31:24;16.55;;;9.50;;
65656;SDS011;57397;50.096;14.404;2022-11-20T00:33:50;18.00;;;9.95;;
65656;SDS011;57397;50.096;14.404;2022-11-20T00:36:17;17.33;;;10.13;;
65656;SDS011;57397;50.096;14.404;2022-11-20T00:38:44;18.05;;;10.10;;
65656;SDS011;57397;50.096;14.404;2022-11-20T00:41:10;17.95;;;9.90;;
65656;SDS011;57397;50.096;14.404;2022-11-20T00:43:37;18.48;;;9.55;;
65656;SDS011;57397;50.096;14.404;2022-11-20T00:46:07;17.70;;;9.85;;
65656;SDS011;57397;50.096;14.404;2022-11-20T00:48:40;16.75;;;9.70;;
65656;SDS011;57397;50.096;14.404;2022-11-20T00:51:06;18.65;;;10.27;;
65656;SDS011;57397;50.096;14.404;2022-11-20T00:53:31;18.80;;;10.30;;
65656;SDS011;57397;50.096;14.404;2022-11-20T00:56:01;17.17;;;9.80;;
65656;SDS011;57397;50.096;14.404;2022-11-20T00:58:29;17.98;;;10.23;;
65656;SDS011;57397;50.096;14.404;2022-11-20T01:00:59;16.60;;;10.35;;
65656;SDS011;57397;50.096;14.404;2022-11-20T01:03:52;16.90;;;9.65;;
65656;SDS011;57397;50.096;14.404;2022-11-20T01:06:19;18.27;;;10.18;;
65656;SDS011;57397;50.096;14.404;2022-11-20T01:08:50;19.48;;;10.52;;
65656;SDS011;57397;50.096;14.404;2022-11-20T01:11:18;18.00;;;10.35;;
65656;SDS011;57397;50.096;14.404;2022-11-20T01:13:46;17.75;;;10.13;;
65656;SDS011;57397;50.096;14.404;2022-11-20T01:16:13;17.05;;;9.55;;
65656;SDS011;57397;50.096;14.404;2022-11-20T01:18:40;18.85;;;9.73;;
65656;SDS011;57397;50.096;14.404;2022-11-20T01:21:08;16.25;;;9.43;;
65656;SDS011;57397;50.096;14.404;2022-11-20T01:23:36;18.63;;;9.77;;
65656;SDS011;57397;50.096;14.404;2022-11-20T01:26:03;16.73;;;9.45;;
65656;SDS011;57397;50.096;14.404;2022-11-20T01:28:30;15.50;;;9.40;;
65656;SDS011;57397;50.096;14.404;2022-11-20T01:30:56;16.20;;;9.95;;
65656;SDS011;57397;50.096;14.404;2022-11-20T01:33:21;17.23;;;9.88;;
65656;SDS011;57397;50.096;14.404;2022-11-20T01:35:47;16.38;;;9.32;;
65656;SDS011;57397;50.096;14.404;2022-11-20T01:38:12;16.67;;;8.98;;
65656;SDS011;57397;50.096;14.404;2022-11-20T01:40:38;18.23;;;10.45;;
65656;SDS011;57397;50.096;14.404;2022-11-20T01:43:21;17.42;;;9.73;;
65656;SDS011;57397;50.096;14.404;2022-11-20T01:48:42;15.20;;;9.57;;
65656;SDS011;57397;50.096;14.404;2022-11-20T01:51:17;16.90;;;9.15;;
65656;SDS011;57397;50.096;14.404;2022-11-20T01:54:05;18.52;;;9.18;;
65656;SDS011;57397;50.096;14.404;2022-11-20T01:56:33;15.32;;;9.73;;
65656;SDS011;57397;50.096;14.404;2022-11-20T01:59:02;16.35;;;9.48;;
65656;SDS011;57397;50.096;14.404;2022-11-20T02:01:30;15.40;;;8.88;;
65656;SDS011;57397;50.096;14.404;2022-11-20T02:03:55;14.75;;;9.32;;
65656;SDS011;57397;50.096;14.404;2022-11-20T02:06:28;16.55;;;8.90;;
65656;SDS011;57397;50.096;14.404;2022-11-20T02:08:55;15.95;;;9.32;;
65656;SDS011;57397;50.096;14.404;2022-11-20T02:11:20;16.00;;;9.27;;
65656;SDS011;57397;50.096;14.404;2022-11-20T02:13:46;17.65;;;9.93;;
65656;SDS011;57397;50.096;14.404;2022-11-20T02:18:41;15.05;;;9.20;;
65656;SDS011;57397;50.096;14.404;2022-11-20T02:24:11;16.95;;;9.43;;
65656;SDS011;57397;50.096;14.404;2022-11-20T02:26:56;17.05;;;9.63;;
65656;SDS011;57397;50.096;14.404;2022-11-20T02:29:44;16.38;;;9.65;;
65656;SDS011;57397;50.096;14.404;2022-11-20T02:32:46;16.35;;;9.23;;
65656;SDS011;57397;50.096;14.404;2022-11-20T02:35:50;16.27;;;9.50;;
65656;SDS011;57397;50.096;14.404;2022-11-20T02:37:51;15.43;;;9.15;;
65656;SDS011;57397;50.096;14.404;2022-11-20T02:40:19;15.77;;;8.88;;
65656;SDS011;57397;50.096;14.404;2022-11-20T02:42:45;15.27;;;9.27;;
65656;SDS011;57397;50.096;14.404;2022-11-20T02:45:10;17.85;;;9.90;;
65656;SDS011;57397;50.096;14.404;2022-11-20T02:47:36;15.75;;;8.70;;
65656;SDS011;57397;50.096;14.404;2022-11-20T02:50:02;15.20;;;8.85;;
65656;SDS011;57397;50.096;14.404;2022-11-20T02:52:29;16.58;;;9.18;;
65656;SDS011;57397;50.096;14.404;2022-11-20T02:54:55;16.33;;;9.23;;
65656;SDS011;57397;50.096;14.404;2022-11-20T02:57:20;15.88;;;9.55;;
65656;SDS011;57397;50.096;14.404;2022-11-20T02:59:46;18.63;;;9.48;;
65656;SDS011;57397;50.096;14.404;2022-11-20T03:02:11;14.80;;;9.27;;
65656;SDS011;57397;50.096;14.404;2022-11-20T03:04:36;17.85;;;9.77;;
65656;SDS011;57397;50.096;14.404;2022-11-20T03:07:02;16.88;;;9.70;;
65656;SDS011;57397;50.096;14.404;2022-11-20T03:09:28;16.63;;;9.50;;
65656;SDS011;57397;50.096;14.404;2022-11-20T03:11:53;16.30;;;9.77;;
65656;SDS011;57397;50.096;14.404;2022-11-20T03:14:19;15.25;;;8.95;;
65656;SDS011;57397;50.096;14.404;2022-11-20T03:16:44;13.52;;;8.70;;
65656;SDS011;57397;50.096;14.404;2022-11-20T03:19:10;16.25;;;9.18;;
65656;SDS011;57397;50.096;14.404;2022-11-20T03:21:36;16.10;;;9.52;;
65656;SDS011;57397;50.096;14.404;2022-11-20T03:24:02;17.98;;;9.35;;
65656;SDS011;57397;50.096;14.404;2022-11-20T03:26:28;14.85;;;8.75;;
65656;SDS011;57397;50.096;14.404;2022-11-20T03:28:58;15.80;;;8.90;;
65656;SDS011;57397;50.096;14.404;2022-11-20T03:31:26;15.30;;;9.70;;
65656;SDS011;57397;50.096;14.404;2022-11-20T03:33:55;16.55;;;9.40;;
65656;SDS011;57397;50.096;14.404;2022-11-20T03:36:21;16.13;;;9.50;;
65656;SDS011;57397;50.096;14.404;2022-11-20T03:38:47;15.07;;;9.43;;
65656;SDS011;57397;50.096;14.404;2022-11-20T03:41:17;17.02;;;9.85;;
65656;SDS011;57397;50.096;14.404;2022-11-20T03:43:54;16.58;;;10.10;;
65656;SDS011;57397;50.096;14.404;2022-11-20T03:46:22;17.25;;;9.63;;
65656;SDS011;57397;50.096;14.404;2022-11-20T03:48:48;15.52;;;9.32;;
65656;SDS011;57397;50.096;14.404;2022-11-20T03:51:14;17.30;;;9.38;;
65656;SDS011;57397;50.096;14.404;2022-11-20T03:53:41;16.25;;;9.38;;
65656;SDS011;57397;50.096;14.404;2022-11-20T03:56:08;16.02;;;9.10;;
65656;SDS011;57397;50.096;14.404;2022-11-20T03:58:35;15.95;;;9.45;;
65656;SDS011;57397;50.096;14.404;2022-11-20T04:01:06;15.65;;;9.10;;
65656;SDS011;57397;50.096;14.404;2022-11-20T04:03:35;15.32;;;9.25;;
65656;SDS011;57397;50.096;14.404;2022-11-20T04:06:02;15.75;;;9.50;;
65656;SDS011;57397;50.096;14.404;2022-11-20T04:08:35;14.82;;;8.63;;
65656;SDS011;57397;50.096;14.404;2022-11-20T04:11:14;15.20;;;9.50;;
65656;SDS011;57397;50.096;14.404;2022-11-20T04:13:41;17.20;;;9.20;;
65656;SDS011;57397;50.096;14.404;2022-11-20T04:16:07;15.13;;;8.80;;
65656;SDS011;57397;50.096;14.404;2022-11-20T04:18:33;16.10;;;9.48;;
65656;SDS011;57397;50.096;14.404;2022-11-20T04:20:59;17.25;;;10.35;;
65656;SDS011;57397;50.096;14.404;2022-11-20T04:23:25;16.70;;;10.07;;
65656;SDS011;57397;50.096;14.404;2022-11-20T04:25:51;15.25;;;8.88;;
65656;SDS011;57397;50.096;14.404;2022-11-20T04:28:17;16.35;;;9.35;;
65656;SDS011;57397;50.096;14.404;2022-11-20T04:30:42;18.33;;;9.43;;
65656;SDS011;57397;50.096;14.404;2022-11-20T04:33:08;15.02;;;8.98;;
65656;SDS011;57397;50.096;14.404;2022-11-20T04:35:33;15.38;;;9.13;;
65656;SDS011;57397;50.096;14.404;2022-11-20T04:37:59;15.48;;;8.88;;
65656;SDS011;57397;50.096;14.404;2022-11-20T04:40:25;16.00;;;9.25;;
65656;SDS011;57397;50.096;14.404;2022-11-20T04:42:50;15.70;;;9.35;;
65656;SDS011;57397;50.096;14.404;2022-11-20T04:45:16;16.95;;;9.40;;
65656;SDS011;57397;50.096;14.404;2022-11-20T04:47:41;15.45;;;9.45;;
65656;SDS011;57397;50.096;14.404;2022-11-20T04:50:06;16.67;;;9.45;;
65656;SDS011;57397;50.096;14.404;2022-11-20T04:52:32;16.98;;;9.73;;
65656;SDS011;57397;50.096;14.404;2022-11-20T04:54:58;15.73;;;9.57;;
65656;SDS011;57397;50.096;14.404;2022-11-20T04:57:24;16.88;;;9.85;;
65656;SDS011;57397;50.096;14.404;2022-11-20T04:59:50;17.15;;;9.68;;
65656;SDS011;57397;50.096;14.404;2022-11-20T05:02:15;16.50;;;9.13;;
65656;SDS011;57397;50.096;14.404;2022-11-20T05:04:41;17.48;;;9.73;;
65656;SDS011;57397;50.096;14.404;2022-11-20T05:07:06;16.65;;;9.85;;
65656;SDS011;57397;50.096;14.404;2022-11-20T05:09:31;15.68;;;9.55;;
65656;SDS011;57397;50.096;14.404;2022-11-20T05:11:57;15.70;;;8.98;;
65656;SDS011;57397;50.096;14.404;2022-11-20T05:14:22;16.70;;;9.60;;
65656;SDS011;57397;50.096;14.404;2022-11-20T05:16:48;17.13;;;9.52;;
65656;SDS011;57397;50.096;14.404;2022-11-20T05:19:13;16.20;;;9.32;;
65656;SDS011;57397;50.096;14.404;2022-11-20T05:21:38;18.48;;;9.75;;
65656;SDS011;57397;50.096;14.404;2022-11-20T05:24:04;18.23;;;9.60;;
65656;SDS011;57397;50.096;14.404;2022-11-20T05:26:30;16.95;;;9.38;;
65656;SDS011;57397;50.096;14.404;2022-11-20T05:28:56;15.52;;;9.15;;
65656;SDS011;57397;50.096;14.404;2022-11-20T05:31:22;17.80;;;10.02;;
65656;SDS011;57397;50.096;14.404;2022-11-20T05:33:48;15.73;;;9.20;;
65656;SDS011;57397;50.096;14.404;2022-11-20T05:36:15;16.23;;;9.48;;
65656;SDS011;57397;50.096;14.404;2022-11-20T05:38:41;16.23;;;9.80;;
65656;SDS011;57397;50.096;14.404;2022-11-20T05:41:11;15.77;;;9.40;;
65656;SDS011;57397;50.096;14.404;2022-11-20T05:43:39;16.33;;;9.43;;
65656;SDS011;57397;50.096;14.404;2022-11-20T05:46:06;17.10;;;9.90;;
65656;SDS011;57397;50.096;14.404;2022-11-20T05:48:33;15.90;;;9.40;;
65656;SDS011;57397;50.096;14.404;2022-11-20T05:51:00;17.20;;;9.57;;
65656;SDS011;57397;50.096;14.404;2022-11-20T05:53:26;16.73;;;9.30;;
65656;SDS011;57397;50.096;14.404;2022-11-20T05:55:56;16.42;;;9.90;;
65656;SDS011;57397;50.096;14.404;2022-11-20T05:58:28;16.90;;;9.80;;
65656;SDS011;57397;50.096;14.404;2022-11-20T06:00:54;16.35;;;9.40;;
65656;SDS011;57397;50.096;14.404;2022-11-20T06:03:20;17.17;;;9.60;;
65656;SDS011;57397;50.096;14.404;2022-11-20T06:05:45;16.73;;;9.10;;
65656;SDS011;57397;50.096;14.404;2022-11-20T06:08:11;16.52;;;9.20;;
65656;SDS011;57397;50.096;14.404;2022-11-20T06:10:36;16.50;;;9.13;;
65656;SDS011;57397;50.096;14.404;2022-11-20T06:13:02;17.13;;;9.15;;
65656;SDS011;57397;50.096;14.404;2022-11-20T06:15:27;16.30;;;9.40;;
65656;SDS011;57397;50.096;14.404;2022-11-20T06:17:53;15.65;;;9.00;;
65656;SDS011;57397;50.096;14.404;2022-11-20T06:20:19;17.38;;;9.80;;
65656;SDS011;57397;50.096;14.404;2022-11-20T06:22:45;16.58;;;9.82;;
65656;SDS011;57397;50.096;14.404;2022-11-20T06:25:11;18.17;;;9.57;;
65656;SDS011;57397;50.096;14.404;2022-11-20T06:27:36;15.15;;;9.15;;
65656;SDS011;57397;50.096;14.404;2022-11-20T06:30:03;15.85;;;9.45;;
65656;SDS011;57397;50.096;14.404;2022-11-20T06:32:29;17.98;;;9.88;;
65656;SDS011;57397;50.096;14.404;2022-11-20T06:34:54;17.13;;;9.57;;
65656;SDS011;57397;50.096;14.404;2022-11-20T06:37:20;15.77;;;9.43;;
65656;SDS011;57397;50.096;14.404;2022-11-20T06:39:45;17.20;;;9.48;;
65656;SDS011;57397;50.096;14.404;2022-11-20T06:42:11;15.20;;;8.82;;
65656;SDS011;57397;50.096;14.404;2022-11-20T06:44:36;17.63;;;10.00;;
65656;SDS011;57397;50.096;14.404;2022-11-20T06:47:01;16.27;;;9.80;;
65656;SDS011;57397;50.096;14.404;2022-11-20T06:49:27;17.15;;;9.25;;
65656;SDS011;57397;50.096;14.404;2022-11-20T06:51:52;17.15;;;9.75;;
65656;SDS011;57397;50.096;14.404;2022-11-20T06:54:18;16.15;;;9.30;;
65656;SDS011;57397;50.096;14.404;2022-11-20T06:56:46;18.20;;;9.90;;
65656;SDS011;57397;50.096;14.404;2022-11-20T06:59:12;16.23;;;9.00;;
65656;SDS011;57397;50.096;14.404;2022-11-20T07:01:38;16.85;;;8.60;;
65656;SDS011;57397;50.096;14.404;2022-11-20T07:04:03;15.77;;;8.82;;
65656;SDS011;57397;50.096;14.404;2022-11-20T07:06:29;14.70;;;8.70;;
65656;SDS011;57397;50.096;14.404;2022-11-20T07:08:54;15.27;;;8.98;;
65656;SDS011;57397;50.096;14.404;2022-11-20T07:11:20;16.80;;;8.98;;
65656;SDS011;57397;50.096;14.404;2022-11-20T07:13:45;13.68;;;7.90;;
65656;SDS011;57397;50.096;14.404;2022-11-20T07:16:11;17.02;;;9.02;;
65656;SDS011;57397;50.096;14.404;2022-11-20T07:18:37;16.02;;;9.27;;
65656;SDS011;57397;50.096;14.404;2022-11-20T07:21:04;14.75;;;8.35;;
65656;SDS011;57397;50.096;14.404;2022-11-20T07:23:33;14.38;;;8.07;;
65656;SDS011;57397;50.096;14.404;2022-11-20T07:26:06;16.05;;;8.77;;
65656;SDS011;57397;50.096;14.404;2022-11-20T07:28:32;16.90;;;8.75;;
65656;SDS011;57397;50.096;14.404;2022-11-20T07:30:58;14.70;;;8.70;;
65656;SDS011;57397;50.096;14.404;2022-11-20T07:33:24;16.20;;;9.40;;
65656;SDS011;57397;50.096;14.404;2022-11-20T07:35:49;14.40;;;8.23;;
65656;SDS011;57397;50.096;14.404;2022-11-20T07:38:14;16.27;;;8.43;;
65656;SDS011;57397;50.096;14.404;2022-11-20T07:40:40;15.13;;;8.65;;
65656;SDS011;57397;50.096;14.404;2022-11-20T07:43:05;14.32;;;8.38;;
65656;SDS011;57397;50.096;14.404;2022-11-20T07:45:31;15.60;;;8.77;;
65656;SDS011;57397;50.096;14.404;2022-11-20T07:47:57;15.73;;;8.93;;
65656;SDS011;57397;50.096;14.404;2022-11-20T07:50:22;14.52;;;8.73;;
65656;SDS011;57397;50.096;14.404;2022-11-20T07:52:48;14.82;;;8.55;;
65656;SDS011;57397;50.096;14.404;2022-11-20T07:55:14;15.98;;;8.43;;
65656;SDS011;57397;50.096;14.404;2022-11-20T07:57:39;14.73;;;8.77;;
65656;SDS011;57397;50.096;14.404;2022-11-20T08:00:05;15.55;;;7.85;;
65656;SDS011;57397;50.096;14.404;2022-11-20T08:02:40;15.77;;;8.27;;
65656;SDS011;57397;50.096;14.404;2022-11-20T08:05:08;15.00;;;8.20;;
65656;SDS011;57397;50.096;14.404;2022-11-20T08:07:38;15.48;;;8.30;;
65656;SDS011;57397;50.096;14.404;2022-11-20T08:10:05;13.65;;;7.80;;
65656;SDS011;57397;50.096;14.404;2022-11-20T08:12:31;15.25;;;8.20;;
65656;SDS011;57397;50.096;14.404;2022-11-20T08:15:15;16.35;;;8.10;;
65656;SDS011;57397;50.096;14.404;2022-11-20T08:17:43;14.57;;;7.95;;
65656;SDS011;57397;50.096;14.404;2022-11-20T08:20:13;15.23;;;8.30;;
65656;SDS011;57397;50.096;14.404;2022-11-20T08:22:39;13.65;;;8.05;;
65656;SDS011;57397;50.096;14.404;2022-11-20T08:25:05;15.07;;;8.30;;
65656;SDS011;57397;50.096;14.404;2022-11-20T08:27:31;13.63;;;7.82;;
65656;SDS011;57397;50.096;14.404;2022-11-20T08:29:58;15.77;;;8.45;;
65656;SDS011;57397;50.096;14.404;2022-11-20T08:32:24;15.07;;;8.70;;
65656;SDS011;57397;50.096;14.404;2022-11-20T08:34:50;16.08;;;9.77;;
65656;SDS011;57397;50.096;14.404;2022-11-20T08:37:16;17.92;;;9.52;;
65656;SDS011;57397;50.096;14.404;2022-11-20T08:39:41;15.27;;;8.82;;
65656;SDS011;57397;50.096;14.404;2022-11-20T08:42:07;15.77;;;9.27;;
65656;SDS011;57397;50.096;14.404;2022-11-20T08:44:33;15.52;;;8.88;;
65656;SDS011;57397;50.096;14.404;2022-11-20T08:47:00;14.88;;;8.50;;
65656;SDS011;57397;50.096;14.404;2022-11-20T08:49:25;15.05;;;8.32;;
65656;SDS011;57397;50.096;14.404;2022-11-20T08:51:51;14.35;;;7.97;;
65656;SDS011;57397;50.096;14.404;2022-11-20T08:54:21;15.02;;;8.30;;
65656;SDS011;57397;50.096;14.404;2022-11-20T08:56:48;14.23;;;7.82;;
65656;SDS011;57397;50.096;14.404;2022-11-20T08:59:17;12.98;;;7.90;;
65656;SDS011;57397;50.096;14.404;2022-11-20T09:01:43;15.48;;;8.85;;
65656;SDS011;57397;50.096;14.404;2022-11-20T09:04:09;15.30;;;8.38;;
65656;SDS011;57397;50.096;14.404;2022-11-20T09:06:36;16.35;;;7.93;;
65656;SDS011;57397;50.096;14.404;2022-11-20T09:09:02;12.27;;;7.00;;
65656;SDS011;57397;50.096;14.404;2022-11-20T09:11:28;15.23;;;8.00;;
65656;SDS011;57397;50.096;14.404;2022-11-20T09:13:54;12.50;;;7.35;;
65656;SDS011;57397;50.096;14.404;2022-11-20T09:16:25;13.80;;;7.85;;
65656;SDS011;57397;50.096;14.404;2022-11-20T09:18:53;12.80;;;7.70;;
65656;SDS011;57397;50.096;14.404;2022-11-20T09:21:20;12.95;;;7.50;;
65656;SDS011;57397;50.096;14.404;2022-11-20T09:23:45;14.15;;;8.02;;
65656;SDS011;57397;50.096;14.404;2022-11-20T09:26:12;14.90;;;7.60;;
65656;SDS011;57397;50.096;14.404;2022-11-20T09:28:39;14.65;;;7.88;;
65656;SDS011;57397;50.096;14.404;2022-11-20T09:31:24;13.30;;;7.35;;
65656;SDS011;57397;50.096;14.404;2022-11-20T09:33:53;13.25;;;7.25;;
65656;SDS011;57397;50.096;14.404;2022-11-20T09:36:22;12.52;;;7.45;;
65656;SDS011;57397;50.096;14.404;2022-11-20T09:38:57;12.52;;;6.90;;
65656;SDS011;57397;50.096;14.404;2022-11-20T09:52:45;13.18;;;7.05;;
65656;SDS011;57397;50.096;14.404;2022-11-20T09:55:24;12.82;;;7.28;;
65656;SDS011;57397;50.096;14.404;2022-11-20T09:57:51;12.07;;;6.85;;
65656;SDS011;57397;50.096;14.404;2022-11-20T10:00:18;12.65;;;7.20;;
65656;SDS011;57397;50.096;14.404;2022-11-20T10:02:55;12.38;;;7.50;;
65656;SDS011;57397;50.096;14.404;2022-11-20T10:08:14;12.10;;;6.85;;
65656;SDS011;57397;50.096;14.404;2022-11-20T10:10:47;13.23;;;6.93;;
65656;SDS011;57397;50.096;14.404;2022-11-20T10:13:20;14.73;;;7.28;;
65656;SDS011;57397;50.096;14.404;2022-11-20T10:31:44;12.23;;;6.47;;
65656;SDS011;57397;50.096;14.404;2022-11-20T10:36:52;12.70;;;6.85;;
65656;SDS011;57397;50.096;14.404;2022-11-20T10:42:14;13.15;;;6.82;;
65656;SDS011;57397;50.096;14.404;2022-11-20T10:44:51;13.05;;;7.63;;
65656;SDS011;57397;50.096;14.404;2022-11-20T10:47:27;11.07;;;6.80;;
65656;SDS011;57397;50.096;14.404;2022-11-20T10:49:55;12.05;;;6.63;;
65656;SDS011;57397;50.096;14.404;2022-11-20T11:01:11;12.23;;;6.70;;
65656;SDS011;57397;50.096;14.404;2022-11-20T11:03:45;11.73;;;6.63;;
65656;SDS011;57397;50.096;14.404;2022-11-20T11:09:25;11.77;;;6.75;;
65656;SDS011;57397;50.096;14.404;2022-11-20T11:11:58;11.60;;;6.45;;
65656;SDS011;57397;50.096;14.404;2022-11-20T11:14:25;11.60;;;6.95;;
65656;SDS011;57397;50.096;14.404;2022-11-20T11:19:19;10.73;;;6.80;;
65656;SDS011;57397;50.096;14.404;2022-11-20T11:21:55;10.88;;;6.45;;
65656;SDS011;57397;50.096;14.404;2022-11-20T11:24:43;10.77;;;6.30;;
65656;SDS011;57397;50.096;14.404;2022-11-20T11:27:17;11.75;;;6.65;;
65656;SDS011;57397;50.096;14.404;2022-11-20T11:29:42;10.55;;;6.65;;
65656;SDS011;57397;50.096;14.404;2022-11-20T11:32:11;10.63;;;6.25;;
65656;SDS011;57397;50.096;14.404;2022-11-20T11:34:38;11.50;;;6.38;;
65656;SDS011;57397;50.096;14.404;2022-11-20T11:37:03;11.18;;;6.47;;
65656;SDS011;57397;50.096;14.404;2022-11-20T11:39:30;12.80;;;6.90;;
65656;SDS011;57397;50.096;14.404;2022-11-20T11:41:56;10.85;;;6.28;;
65656;SDS011;57397;50.096;14.404;2022-11-20T11:44:28;11.65;;;6.80;;
65656;SDS011;57397;50.096;14.404;2022-11-20T11:47:29;11.05;;;6.43;;
65656;SDS011;57397;50.096;14.404;2022-11-20T11:55:17;10.00;;;6.05;;
65656;SDS011;57397;50.096;14.404;2022-11-20T11:57:57;9.82;;;5.97;;
65656;SDS011;57397;50.096;14.404;2022-11-20T12:00:29;11.02;;;6.28;;
65656;SDS011;57397;50.096;14.404;2022-11-20T12:03:40;10.50;;;6.35;;
65656;SDS011;57397;50.096;14.404;2022-11-20T12:05:45;9.85;;;6.15;;
65656;SDS011;57397;50.096;14.404;2022-11-20T12:14:27;10.35;;;5.95;;
65656;SDS011;57397;50.096;14.404;2022-11-20T12:17:00;10.10;;;5.93;;
65656;SDS011;57397;50.096;14.404;2022-11-20T12:19:26;9.70;;;5.88;;
65656;SDS011;57397;50.096;14.404;2022-11-20T12:34:03;13.00;;;7.15;;
65656;SDS011;57397;50.096;14.404;2022-11-20T12:39:07;11.27;;;6.50;;
65656;SDS011;57397;50.096;14.404;2022-11-20T12:45:22;10.73;;;6.40;;
65656;SDS011;57397;50.096;14.404;2022-11-20T12:53:28;11.95;;;7.00;;
65656;SDS011;57397;50.096;14.404;2022-11-20T12:58:59;11.75;;;6.85;;
65656;SDS011;57397;50.096;14.404;2022-11-20T13:07:13;11.27;;;6.82;;
65656;SDS011;57397;50.096;14.404;2022-11-20T13:09:49;11.60;;;6.97;;
65656;SDS011;57397;50.096;14.404;2022-11-20T13:12:26;12.10;;;6.95;;
65656;SDS011;57397;50.096;14.404;2022-11-20T13:15:08;11.13;;;6.95;;
65656;SDS011;57397;50.096;14.404;2022-11-20T13:18:01;11.90;;;6.45;;
65656;SDS011;57397;50.096;14.404;2022-11-20T13:20:36;11.25;;;6.40;;
65656;SDS011;57397;50.096;14.404;2022-11-20T13:23:06;12.10;;;6.90;;
65656;SDS011;57397;50.096;14.404;2022-11-20T13:25:32;13.43;;;6.70;;
65656;SDS011;57397;50.096;14.404;2022-11-20T13:28:00;11.52;;;6.90;;
65656;SDS011;57397;50.096;14.404;2022-11-20T13:30:31;13.15;;;7.13;;
65656;SDS011;57397;50.096;14.404;2022-11-20T13:32:58;11.52;;;6.90;;
65656;SDS011;57397;50.096;14.404;2022-11-20T13:35:32;12.77;;;7.38;;
65656;SDS011;57397;50.096;14.404;2022-11-20T13:38:10;14.57;;;7.32;;
65656;SDS011;57397;50.096;14.404;2022-11-20T13:40:38;12.07;;;7.55;;
65656;SDS011;57397;50.096;14.404;2022-11-20T13:45:54;12.77;;;7.20;;
65656;SDS011;57397;50.096;14.404;2022-11-20T13:48:26;12.20;;;7.10;;
65656;SDS011;57397;50.096;14.404;2022-11-20T13:51:05;13.10;;;6.30;;
65656;SDS011;57397;50.096;14.404;2022-11-20T13:56:24;10.57;;;6.57;;
65656;SDS011;57397;50.096;14.404;2022-11-20T14:01:24;12.90;;;6.70;;
65656;SDS011;57397;50.096;14.404;2022-11-20T14:03:50;11.02;;;6.68;;
65656;SDS011;57397;50.096;14.404;2022-11-20T14:06:25;11.27;;;6.60;;
65656;SDS011;57397;50.096;14.404;2022-11-20T14:08:52;10.45;;;6.05;;
65656;SDS011;57397;50.096;14.404;2022-11-20T14:11:19;10.77;;;6.30;;
65656;SDS011;57397;50.096;14.404;2022-11-20T14:16:38;9.40;;;5.57;;
65656;SDS011;57397;50.096;14.404;2022-11-20T14:21:53;9.13;;;5.18;;
65656;SDS011;57397;50.096;14.404;2022-11-20T14:24:31;10.05;;;5.55;;
65656;SDS011;57397;50.096;14.404;2022-11-20T14:26:56;9.35;;;5.53;;
65656;SDS011;57397;50.096;14.404;2022-11-20T14:29:23;8.20;;;5.00;;
65656;SDS011;57397;50.096;14.404;2022-11-20T14:31:53;9.80;;;5.43;;
65656;SDS011;57397;50.096;14.404;2022-11-20T14:34:24;9.43;;;5.50;;
65656;SDS011;57397;50.096;14.404;2022-11-20T14:36:56;7.82;;;5.00;;
65656;SDS011;57397;50.096;14.404;2022-11-20T14:39:33;8.35;;;5.18;;
65656;SDS011;57397;50.096;14.404;2022-11-20T14:42:27;8.32;;;4.90;;
65656;SDS011;57397;50.096;14.404;2022-11-20T14:44:57;9.50;;;4.90;;
65656;SDS011;57397;50.096;14.404;2022-11-20T14:47:25;8.23;;;4.80;;
65656;SDS011;57397;50.096;14.404;2022-11-20T14:49:52;8.25;;;5.00;;
65656;SDS011;57397;50.096;14.404;2022-11-20T14:52:25;8.32;;;4.95;;
65656;SDS011;57397;50.096;14.404;2022-11-20T14:54:52;8.90;;;4.95;;
65656;SDS011;57397;50.096;14.404;2022-11-20T14:57:31;8.48;;;4.70;;
65656;SDS011;57397;50.096;14.404;2022-11-20T15:02:53;7.65;;;4.50;;
65656;SDS011;57397;50.096;14.404;2022-11-20T15:05:20;7.70;;;4.45;;
65656;SDS011;57397;50.096;14.404;2022-11-20T15:07:49;8.32;;;5.03;;
65656;SDS011;57397;50.096;14.404;2022-11-20T15:10:23;8.25;;;4.78;;
65656;SDS011;57397;50.096;14.404;2022-11-20T15:16:12;7.15;;;4.43;;
65656;SDS011;57397;50.096;14.404;2022-11-20T15:18:12;7.15;;;4.35;;
65656;SDS011;57397;50.096;14.404;2022-11-20T15:20:41;7.73;;;4.20;;
65656;SDS011;57397;50.096;14.404;2022-11-20T15:23:11;7.72;;;4.88;;
65656;SDS011;57397;50.096;14.404;2022-11-20T15:25:39;7.00;;;4.35;;
65656;SDS011;57397;50.096;14.404;2022-11-20T15:28:04;7.90;;;4.65;;
65656;SDS011;57397;50.096;14.404;2022-11-20T15:30:42;8.00;;;4.65;;
65656;SDS011;57397;50.096;14.404;2022-11-20T15:33:08;7.35;;;4.30;;
65656;SDS011;57397;50.096;14.404;2022-11-20T15:35:34;8.60;;;4.68;;
65656;SDS011;57397;50.096;14.404;2022-11-20T15:37:59;7.75;;;4.22;;
65656;SDS011;57397;50.096;14.404;2022-11-20T15:40:24;7.35;;;4.50;;
65656;SDS011;57397;50.096;14.404;2022-11-20T15:42:50;8.20;;;4.82;;
65656;SDS011;57397;50.096;14.404;2022-11-20T15:45:40;8.02;;;4.75;;
65656;SDS011;57397;50.096;14.404;2022-11-20T15:48:18;7.50;;;4.53;;
65656;SDS011;57397;50.096;14.404;2022-11-20T15:50:58;7.88;;;4.55;;
65656;SDS011;57397;50.096;14.404;2022-11-20T15:53:26;8.43;;;4.78;;
65656;SDS011;57397;50.096;14.404;2022-11-20T15:55:52;7.68;;;4.78;;
65656;SDS011;57397;50.096;14.404;2022-11-20T15:58:18;7.30;;;4.32;;
65656;SDS011;57397;50.096;14.404;2022-11-20T16:00:43;7.95;;;4.68;;
65656;SDS011;57397;50.096;14.404;2022-11-20T16:03:13;7.97;;;4.40;;
65656;SDS011;57397;50.096;14.404;2022-11-20T16:05:39;7.70;;;4.65;;
65656;SDS011;57397;50.096;14.404;2022-11-20T16:08:04;7.47;;;4.53;;
65656;SDS011;57397;50.096;14.404;2022-11-20T16:10:30;6.90;;;4.40;;
65656;SDS011;57397;50.096;14.404;2022-11-20T16:12:55;6.50;;;4.07;;
65656;SDS011;57397;50.096;14.404;2022-11-20T16:15:39;6.53;;;4.07;;
65656;SDS011;57397;50.096;14.404;2022-11-20T16:18:13;6.07;;;3.40;;
65656;SDS011;57397;50.096;14.404;2022-11-20T16:20:40;6.13;;;3.95;;
65656;SDS011;57397;50.096;14.404;2022-11-20T16:23:05;5.95;;;3.50;;
65656;SDS011;57397;50.096;14.404;2022-11-20T16:25:31;6.05;;;3.83;;
65656;SDS011;57397;50.096;14.404;2022-11-20T16:27:57;5.68;;;3.63;;
65656;SDS011;57397;50.096;14.404;2022-11-20T16:30:25;5.63;;;3.60;;
65656;SDS011;57397;50.096;14.404;2022-11-20T16:32:51;4.70;;;3.05;;
65656;SDS011;57397;50.096;14.404;2022-11-20T16:35:16;5.00;;;3.22;;